sensor_id;sensor_type;location;lat;lon;timestamp;P1;durP1;ratioP1;P2;durP2;ratioP2
58470;SDS011;44258;51.288;12.068;2022-08-19T00:02:22;23.70;;;12.13;;
58470;SDS011;44258;51.288;12.068;2022-08-19T00:04:50;23.00;;;11.73;;
58470;SDS011;44258;51.288;12.068;2022-08-19T00:07:17;24.10;;;11.85;;
58470;SDS011;44258;51.288;12.068;2022-08-19T00:09:44;23.23;;;11.88;;
58470;SDS011;44258;51.288;12.068;2022-08-19T00:12:11;27.17;;;12.98;;
58470;SDS011;44258;51.288;12.068;2022-08-19T00:14:38;22.30;;;11.98;;
58470;SDS011;44258;51.288;12.068;2022-08-19T00:17:06;26.52;;;13.07;;
58470;SDS011;44258;51.288;12.068;2022-08-19T00:19:33;23.02;;;12.30;;
58470;SDS011;44258;51.288;12.068;2022-08-19T00:22:03;25.38;;;12.63;;
58470;SDS011;44258;51.288;12.068;2022-08-19T00:24:30;23.23;;;12.43;;
58470;SDS011;44258;51.288;12.068;2022-08-19T00:26:58;23.25;;;11.68;;
58470;SDS011;44258;51.288;12.068;2022-08-19T00:29:27;23.95;;;12.23;;
58470;SDS011;44258;51.288;12.068;2022-08-19T00:31:54;27.65;;;12.95;;
58470;SDS011;44258;51.288;12.068;2022-08-19T00:34:23;20.48;;;11.25;;
58470;SDS011;44258;51.288;12.068;2022-08-19T00:36:50;23.98;;;12.40;;
58470;SDS011;44258;51.288;12.068;2022-08-19T00:39:17;24.90;;;12.45;;
58470;SDS011;44258;51.288;12.068;2022-08-19T00:41:44;27.20;;;12.55;;
58470;SDS011;44258;51.288;12.068;2022-08-19T00:44:14;23.20;;;11.82;;
58470;SDS011;44258;51.288;12.068;2022-08-19T00:46:44;21.50;;;11.75;;
58470;SDS011;44258;51.288;12.068;2022-08-19T00:49:13;22.50;;;12.75;;
58470;SDS011;44258;51.288;12.068;2022-08-19T00:51:43;26.02;;;13.13;;
58470;SDS011;44258;51.288;12.068;2022-08-19T00:54:12;23.15;;;11.93;;
58470;SDS011;44258;51.288;12.068;2022-08-19T00:56:42;25.55;;;12.80;;
58470;SDS011;44258;51.288;12.068;2022-08-19T00:59:09;25.08;;;12.43;;
58470;SDS011;44258;51.288;12.068;2022-08-19T01:01:37;25.45;;;12.52;;
58470;SDS011;44258;51.288;12.068;2022-08-19T01:04:05;26.58;;;13.55;;
58470;SDS011;44258;51.288;12.068;2022-08-19T01:06:32;25.80;;;13.65;;
58470;SDS011;44258;51.288;12.068;2022-08-19T01:09:02;26.88;;;14.65;;
58470;SDS011;44258;51.288;12.068;2022-08-19T01:11:30;28.83;;;14.32;;
58470;SDS011;44258;51.288;12.068;2022-08-19T01:14:02;26.92;;;13.25;;
58470;SDS011;44258;51.288;12.068;2022-08-19T01:16:30;26.17;;;13.75;;
58470;SDS011;44258;51.288;12.068;2022-08-19T01:18:59;28.33;;;13.98;;
58470;SDS011;44258;51.288;12.068;2022-08-19T01:21:28;26.27;;;13.43;;
58470;SDS011;44258;51.288;12.068;2022-08-19T01:24:00;25.38;;;11.85;;
58470;SDS011;44258;51.288;12.068;2022-08-19T01:26:27;26.63;;;13.60;;
58470;SDS011;44258;51.288;12.068;2022-08-19T01:28:54;28.67;;;14.18;;
58470;SDS011;44258;51.288;12.068;2022-08-19T01:31:23;27.90;;;15.10;;
58470;SDS011;44258;51.288;12.068;2022-08-19T01:33:53;28.15;;;13.35;;
58470;SDS011;44258;51.288;12.068;2022-08-19T01:36:23;30.45;;;14.13;;
58470;SDS011;44258;51.288;12.068;2022-08-19T01:38:53;27.30;;;14.75;;
58470;SDS011;44258;51.288;12.068;2022-08-19T01:41:22;33.25;;;15.02;;
58470;SDS011;44258;51.288;12.068;2022-08-19T01:43:49;29.77;;;14.35;;
58470;SDS011;44258;51.288;12.068;2022-08-19T01:46:16;27.52;;;14.15;;
58470;SDS011;44258;51.288;12.068;2022-08-19T01:48:43;30.65;;;14.07;;
58470;SDS011;44258;51.288;12.068;2022-08-19T01:51:11;27.42;;;13.82;;
58470;SDS011;44258;51.288;12.068;2022-08-19T01:53:39;25.17;;;13.90;;
58470;SDS011;44258;51.288;12.068;2022-08-19T01:56:06;26.90;;;14.38;;
58470;SDS011;44258;51.288;12.068;2022-08-19T01:58:35;28.85;;;14.43;;
58470;SDS011;44258;51.288;12.068;2022-08-19T02:01:06;28.13;;;15.38;;
58470;SDS011;44258;51.288;12.068;2022-08-19T02:03:34;27.90;;;14.73;;
58470;SDS011;44258;51.288;12.068;2022-08-19T02:06:01;31.58;;;14.73;;
58470;SDS011;44258;51.288;12.068;2022-08-19T02:08:30;33.30;;;16.45;;
58470;SDS011;44258;51.288;12.068;2022-08-19T02:10:58;28.98;;;14.73;;
58470;SDS011;44258;51.288;12.068;2022-08-19T02:13:25;30.02;;;15.73;;
58470;SDS011;44258;51.288;12.068;2022-08-19T02:15:53;27.23;;;13.98;;
58470;SDS011;44258;51.288;12.068;2022-08-19T02:18:19;27.55;;;14.18;;
58470;SDS011;44258;51.288;12.068;2022-08-19T02:20:46;27.83;;;14.75;;
58470;SDS011;44258;51.288;12.068;2022-08-19T02:23:13;30.45;;;15.18;;
58470;SDS011;44258;51.288;12.068;2022-08-19T02:25:42;29.02;;;15.15;;
58470;SDS011;44258;51.288;12.068;2022-08-19T02:28:09;30.27;;;15.15;;
58470;SDS011;44258;51.288;12.068;2022-08-19T02:30:36;34.38;;;15.90;;
58470;SDS011;44258;51.288;12.068;2022-08-19T02:33:04;32.45;;;16.48;;
58470;SDS011;44258;51.288;12.068;2022-08-19T02:35:31;33.15;;;15.77;;
58470;SDS011;44258;51.288;12.068;2022-08-19T02:37:58;31.52;;;15.02;;
58470;SDS011;44258;51.288;12.068;2022-08-19T02:40:47;32.47;;;15.55;;
58470;SDS011;44258;51.288;12.068;2022-08-19T02:43:15;27.70;;;13.65;;
58470;SDS011;44258;51.288;12.068;2022-08-19T02:45:42;30.83;;;16.00;;
58470;SDS011;44258;51.288;12.068;2022-08-19T02:48:10;33.33;;;15.68;;
58470;SDS011;44258;51.288;12.068;2022-08-19T02:50:37;32.88;;;16.23;;
58470;SDS011;44258;51.288;12.068;2022-08-19T02:53:03;35.13;;;16.50;;
58470;SDS011;44258;51.288;12.068;2022-08-19T02:55:30;35.25;;;16.20;;
58470;SDS011;44258;51.288;12.068;2022-08-19T02:57:57;32.30;;;16.80;;
58470;SDS011;44258;51.288;12.068;2022-08-19T03:00:24;33.45;;;15.98;;
58470;SDS011;44258;51.288;12.068;2022-08-19T03:02:51;34.78;;;16.48;;
58470;SDS011;44258;51.288;12.068;2022-08-19T03:05:19;32.85;;;16.65;;
58470;SDS011;44258;51.288;12.068;2022-08-19T03:07:45;33.17;;;15.43;;
58470;SDS011;44258;51.288;12.068;2022-08-19T03:10:12;36.35;;;18.50;;
58470;SDS011;44258;51.288;12.068;2022-08-19T03:12:39;34.83;;;17.25;;
58470;SDS011;44258;51.288;12.068;2022-08-19T03:15:07;36.63;;;16.98;;
58470;SDS011;44258;51.288;12.068;2022-08-19T03:17:34;32.15;;;16.15;;
58470;SDS011;44258;51.288;12.068;2022-08-19T03:20:02;33.42;;;17.38;;
58470;SDS011;44258;51.288;12.068;2022-08-19T03:22:30;33.35;;;16.35;;
58470;SDS011;44258;51.288;12.068;2022-08-19T03:24:57;37.40;;;17.05;;
58470;SDS011;44258;51.288;12.068;2022-08-19T03:27:24;34.22;;;16.90;;
58470;SDS011;44258;51.288;12.068;2022-08-19T03:29:50;36.22;;;17.63;;
58470;SDS011;44258;51.288;12.068;2022-08-19T03:32:17;34.72;;;17.63;;
58470;SDS011;44258;51.288;12.068;2022-08-19T03:34:43;33.83;;;17.23;;
58470;SDS011;44258;51.288;12.068;2022-08-19T03:37:10;35.85;;;18.80;;
58470;SDS011;44258;51.288;12.068;2022-08-19T03:39:40;32.25;;;16.35;;
58470;SDS011;44258;51.288;12.068;2022-08-19T03:42:07;32.35;;;16.80;;
58470;SDS011;44258;51.288;12.068;2022-08-19T03:44:34;35.88;;;17.38;;
58470;SDS011;44258;51.288;12.068;2022-08-19T03:47:03;33.58;;;17.95;;
58470;SDS011;44258;51.288;12.068;2022-08-19T03:49:30;33.97;;;16.65;;
58470;SDS011;44258;51.288;12.068;2022-08-19T03:52:00;34.88;;;17.20;;
58470;SDS011;44258;51.288;12.068;2022-08-19T03:54:27;38.40;;;18.25;;
58470;SDS011;44258;51.288;12.068;2022-08-19T03:56:56;36.95;;;17.90;;
58470;SDS011;44258;51.288;12.068;2022-08-19T03:59:24;36.58;;;18.02;;
58470;SDS011;44258;51.288;12.068;2022-08-19T04:01:52;32.13;;;17.13;;
58470;SDS011;44258;51.288;12.068;2022-08-19T04:04:19;33.80;;;18.02;;
58470;SDS011;44258;51.288;12.068;2022-08-19T04:06:46;32.40;;;16.98;;
58470;SDS011;44258;51.288;12.068;2022-08-19T04:09:13;33.30;;;17.50;;
58470;SDS011;44258;51.288;12.068;2022-08-19T04:11:42;34.28;;;16.08;;
58470;SDS011;44258;51.288;12.068;2022-08-19T04:14:12;33.47;;;16.58;;
58470;SDS011;44258;51.288;12.068;2022-08-19T04:16:40;34.55;;;17.23;;
58470;SDS011;44258;51.288;12.068;2022-08-19T04:19:07;34.78;;;16.85;;
58470;SDS011;44258;51.288;12.068;2022-08-19T04:21:34;33.10;;;16.95;;
58470;SDS011;44258;51.288;12.068;2022-08-19T04:24:01;33.58;;;15.90;;
58470;SDS011;44258;51.288;12.068;2022-08-19T04:26:29;32.55;;;17.20;;
58470;SDS011;44258;51.288;12.068;2022-08-19T04:28:58;35.25;;;18.08;;
58470;SDS011;44258;51.288;12.068;2022-08-19T04:31:28;36.17;;;17.75;;
58470;SDS011;44258;51.288;12.068;2022-08-19T04:33:57;35.83;;;16.60;;
58470;SDS011;44258;51.288;12.068;2022-08-19T04:36:26;34.75;;;17.17;;
58470;SDS011;44258;51.288;12.068;2022-08-19T04:38:54;33.60;;;17.35;;
58470;SDS011;44258;51.288;12.068;2022-08-19T04:41:22;34.53;;;17.65;;
58470;SDS011;44258;51.288;12.068;2022-08-19T04:44:18;36.40;;;17.80;;
58470;SDS011;44258;51.288;12.068;2022-08-19T04:46:47;36.28;;;17.63;;
58470;SDS011;44258;51.288;12.068;2022-08-19T04:49:15;35.05;;;17.42;;
58470;SDS011;44258;51.288;12.068;2022-08-19T04:51:43;35.25;;;18.02;;
58470;SDS011;44258;51.288;12.068;2022-08-19T04:54:12;37.03;;;18.48;;
58470;SDS011;44258;51.288;12.068;2022-08-19T04:56:39;34.25;;;18.42;;
58470;SDS011;44258;51.288;12.068;2022-08-19T04:59:06;40.08;;;20.00;;
58470;SDS011;44258;51.288;12.068;2022-08-19T05:01:33;37.40;;;19.40;;
58470;SDS011;44258;51.288;12.068;2022-08-19T05:04:03;40.05;;;20.17;;
58470;SDS011;44258;51.288;12.068;2022-08-19T05:06:31;35.33;;;18.55;;
58470;SDS011;44258;51.288;12.068;2022-08-19T05:08:58;36.55;;;18.88;;
58470;SDS011;44258;51.288;12.068;2022-08-19T05:11:26;38.33;;;18.33;;
58470;SDS011;44258;51.288;12.068;2022-08-19T05:13:54;35.97;;;18.65;;
58470;SDS011;44258;51.288;12.068;2022-08-19T05:16:22;39.58;;;18.88;;
58470;SDS011;44258;51.288;12.068;2022-08-19T05:18:50;38.13;;;19.48;;
58470;SDS011;44258;51.288;12.068;2022-08-19T05:21:36;39.08;;;20.20;;
58470;SDS011;44258;51.288;12.068;2022-08-19T05:24:21;37.17;;;19.58;;
58470;SDS011;44258;51.288;12.068;2022-08-19T05:26:49;33.60;;;17.58;;
58470;SDS011;44258;51.288;12.068;2022-08-19T05:29:17;34.65;;;17.27;;
58470;SDS011;44258;51.288;12.068;2022-08-19T05:31:45;37.92;;;18.45;;
58470;SDS011;44258;51.288;12.068;2022-08-19T05:34:14;38.90;;;18.42;;
58470;SDS011;44258;51.288;12.068;2022-08-19T05:36:43;36.20;;;17.60;;
58470;SDS011;44258;51.288;12.068;2022-08-19T05:39:12;36.33;;;18.05;;
58470;SDS011;44258;51.288;12.068;2022-08-19T05:41:41;36.75;;;17.33;;
58470;SDS011;44258;51.288;12.068;2022-08-19T05:44:07;35.15;;;18.83;;
58470;SDS011;44258;51.288;12.068;2022-08-19T05:46:35;39.83;;;19.55;;
58470;SDS011;44258;51.288;12.068;2022-08-19T05:49:03;34.05;;;18.27;;
58470;SDS011;44258;51.288;12.068;2022-08-19T05:51:31;36.97;;;18.25;;
58470;SDS011;44258;51.288;12.068;2022-08-19T05:54:00;34.58;;;17.00;;
58470;SDS011;44258;51.288;12.068;2022-08-19T05:56:27;35.67;;;16.83;;
58470;SDS011;44258;51.288;12.068;2022-08-19T05:58:55;33.25;;;17.33;;
58470;SDS011;44258;51.288;12.068;2022-08-19T06:01:21;38.83;;;16.50;;
58470;SDS011;44258;51.288;12.068;2022-08-19T06:03:48;30.77;;;15.73;;
58470;SDS011;44258;51.288;12.068;2022-08-19T06:06:17;31.27;;;15.38;;
58470;SDS011;44258;51.288;12.068;2022-08-19T06:08:44;30.88;;;16.88;;
58470;SDS011;44258;51.288;12.068;2022-08-19T06:11:18;31.63;;;15.43;;
58470;SDS011;44258;51.288;12.068;2022-08-19T06:13:47;31.67;;;15.02;;
58470;SDS011;44258;51.288;12.068;2022-08-19T06:16:17;30.77;;;15.13;;
58470;SDS011;44258;51.288;12.068;2022-08-19T06:18:47;29.50;;;16.33;;
58470;SDS011;44258;51.288;12.068;2022-08-19T06:21:14;31.10;;;15.60;;
58470;SDS011;44258;51.288;12.068;2022-08-19T06:23:40;31.75;;;16.08;;
58470;SDS011;44258;51.288;12.068;2022-08-19T06:26:11;30.80;;;15.63;;
58470;SDS011;44258;51.288;12.068;2022-08-19T06:28:39;30.95;;;16.15;;
58470;SDS011;44258;51.288;12.068;2022-08-19T06:31:07;24.65;;;12.57;;
58470;SDS011;44258;51.288;12.068;2022-08-19T06:33:34;30.02;;;14.93;;
58470;SDS011;44258;51.288;12.068;2022-08-19T06:36:01;28.95;;;14.27;;
58470;SDS011;44258;51.288;12.068;2022-08-19T06:38:27;30.58;;;14.40;;
58470;SDS011;44258;51.288;12.068;2022-08-19T06:40:59;29.60;;;13.90;;
58470;SDS011;44258;51.288;12.068;2022-08-19T06:43:26;27.02;;;14.68;;
58470;SDS011;44258;51.288;12.068;2022-08-19T06:45:54;26.08;;;12.88;;
58470;SDS011;44258;51.288;12.068;2022-08-19T06:48:21;26.70;;;13.18;;
58470;SDS011;44258;51.288;12.068;2022-08-19T06:50:47;28.35;;;13.10;;
58470;SDS011;44258;51.288;12.068;2022-08-19T06:53:16;23.83;;;12.30;;
58470;SDS011;44258;51.288;12.068;2022-08-19T06:55:44;21.70;;;12.10;;
58470;SDS011;44258;51.288;12.068;2022-08-19T06:58:11;24.70;;;11.73;;
58470;SDS011;44258;51.288;12.068;2022-08-19T07:00:37;24.33;;;12.07;;
58470;SDS011;44258;51.288;12.068;2022-08-19T07:03:05;21.88;;;11.68;;
58470;SDS011;44258;51.288;12.068;2022-08-19T07:05:32;22.55;;;11.82;;
58470;SDS011;44258;51.288;12.068;2022-08-19T07:07:59;21.55;;;11.60;;
58470;SDS011;44258;51.288;12.068;2022-08-19T07:10:25;24.40;;;11.70;;
58470;SDS011;44258;51.288;12.068;2022-08-19T07:12:52;25.67;;;12.77;;
58470;SDS011;44258;51.288;12.068;2022-08-19T07:15:18;25.13;;;12.35;;
58470;SDS011;44258;51.288;12.068;2022-08-19T07:17:46;24.70;;;12.52;;
58470;SDS011;44258;51.288;12.068;2022-08-19T07:20:14;22.13;;;11.30;;
58470;SDS011;44258;51.288;12.068;2022-08-19T07:22:41;24.40;;;12.20;;
58470;SDS011;44258;51.288;12.068;2022-08-19T07:25:08;23.00;;;11.15;;
58470;SDS011;44258;51.288;12.068;2022-08-19T07:27:35;21.42;;;11.73;;
58470;SDS011;44258;51.288;12.068;2022-08-19T07:30:03;22.10;;;11.73;;
58470;SDS011;44258;51.288;12.068;2022-08-19T07:32:30;20.65;;;10.57;;
58470;SDS011;44258;51.288;12.068;2022-08-19T07:34:57;21.80;;;11.68;;
58470;SDS011;44258;51.288;12.068;2022-08-19T07:37:26;24.77;;;12.05;;
58470;SDS011;44258;51.288;12.068;2022-08-19T07:39:54;24.80;;;11.98;;
58470;SDS011;44258;51.288;12.068;2022-08-19T07:42:20;23.15;;;11.88;;
58470;SDS011;44258;51.288;12.068;2022-08-19T07:44:47;23.38;;;12.45;;
58470;SDS011;44258;51.288;12.068;2022-08-19T07:47:13;22.70;;;12.57;;
58470;SDS011;44258;51.288;12.068;2022-08-19T07:49:43;23.20;;;12.30;;
58470;SDS011;44258;51.288;12.068;2022-08-19T07:52:09;23.30;;;12.32;;
58470;SDS011;44258;51.288;12.068;2022-08-19T07:54:38;23.98;;;12.75;;
58470;SDS011;44258;51.288;12.068;2022-08-19T07:57:06;22.02;;;11.38;;
58470;SDS011;44258;51.288;12.068;2022-08-19T07:59:34;25.40;;;13.15;;
58470;SDS011;44258;51.288;12.068;2022-08-19T08:02:01;20.45;;;11.18;;
58470;SDS011;44258;51.288;12.068;2022-08-19T08:04:27;20.42;;;11.00;;
58470;SDS011;44258;51.288;12.068;2022-08-19T08:07:12;21.52;;;11.02;;
58470;SDS011;44258;51.288;12.068;2022-08-19T08:09:58;23.55;;;11.40;;
58470;SDS011;44258;51.288;12.068;2022-08-19T08:12:26;22.85;;;11.43;;
58470;SDS011;44258;51.288;12.068;2022-08-19T08:14:56;22.95;;;11.38;;
58470;SDS011;44258;51.288;12.068;2022-08-19T08:17:26;24.08;;;11.95;;
58470;SDS011;44258;51.288;12.068;2022-08-19T08:19:54;19.42;;;10.07;;
58470;SDS011;44258;51.288;12.068;2022-08-19T08:22:21;21.35;;;11.70;;
58470;SDS011;44258;51.288;12.068;2022-08-19T08:25:08;23.33;;;10.82;;
58470;SDS011;44258;51.288;12.068;2022-08-19T08:27:37;24.50;;;11.15;;
58470;SDS011;44258;51.288;12.068;2022-08-19T08:30:05;22.95;;;10.93;;
58470;SDS011;44258;51.288;12.068;2022-08-19T08:32:34;22.42;;;11.32;;
58470;SDS011;44258;51.288;12.068;2022-08-19T08:35:01;23.70;;;12.05;;
58470;SDS011;44258;51.288;12.068;2022-08-19T08:37:27;23.02;;;11.32;;
58470;SDS011;44258;51.288;12.068;2022-08-19T08:39:54;21.98;;;10.80;;
58470;SDS011;44258;51.288;12.068;2022-08-19T08:42:22;23.00;;;11.25;;
58470;SDS011;44258;51.288;12.068;2022-08-19T08:44:53;23.42;;;10.98;;
58470;SDS011;44258;51.288;12.068;2022-08-19T08:47:25;20.55;;;10.55;;
58470;SDS011;44258;51.288;12.068;2022-08-19T08:49:54;22.58;;;10.88;;
58470;SDS011;44258;51.288;12.068;2022-08-19T08:52:26;20.13;;;10.80;;
58470;SDS011;44258;51.288;12.068;2022-08-19T08:54:55;24.65;;;10.80;;
58470;SDS011;44258;51.288;12.068;2022-08-19T08:57:27;24.75;;;10.88;;
58470;SDS011;44258;51.288;12.068;2022-08-19T08:59:57;22.48;;;10.73;;
58470;SDS011;44258;51.288;12.068;2022-08-19T09:02:27;23.10;;;10.90;;
58470;SDS011;44258;51.288;12.068;2022-08-19T09:04:53;22.10;;;10.85;;
58470;SDS011;44258;51.288;12.068;2022-08-19T09:07:23;25.73;;;11.68;;
58470;SDS011;44258;51.288;12.068;2022-08-19T09:10:01;21.80;;;11.10;;
58470;SDS011;44258;51.288;12.068;2022-08-19T09:12:37;18.10;;;10.50;;
58470;SDS011;44258;51.288;12.068;2022-08-19T09:15:13;20.30;;;9.63;;
58470;SDS011;44258;51.288;12.068;2022-08-19T09:17:41;18.52;;;9.30;;
58470;SDS011;44258;51.288;12.068;2022-08-19T09:20:14;20.05;;;10.32;;
58470;SDS011;44258;51.288;12.068;2022-08-19T09:22:43;18.25;;;9.60;;
58470;SDS011;44258;51.288;12.068;2022-08-19T09:25:11;20.23;;;10.00;;
58470;SDS011;44258;51.288;12.068;2022-08-19T09:27:41;18.48;;;9.13;;
58470;SDS011;44258;51.288;12.068;2022-08-19T09:30:12;19.17;;;10.35;;
58470;SDS011;44258;51.288;12.068;2022-08-19T09:32:41;18.13;;;9.10;;
58470;SDS011;44258;51.288;12.068;2022-08-19T09:35:08;18.13;;;8.82;;
58470;SDS011;44258;51.288;12.068;2022-08-19T09:37:35;17.02;;;9.35;;
58470;SDS011;44258;51.288;12.068;2022-08-19T09:40:02;17.73;;;8.75;;
58470;SDS011;44258;51.288;12.068;2022-08-19T09:42:29;18.75;;;9.05;;
58470;SDS011;44258;51.288;12.068;2022-08-19T09:44:57;17.40;;;8.95;;
58470;SDS011;44258;51.288;12.068;2022-08-19T09:47:24;16.02;;;8.32;;
58470;SDS011;44258;51.288;12.068;2022-08-19T09:49:50;20.50;;;9.15;;
58470;SDS011;44258;51.288;12.068;2022-08-19T09:52:17;18.33;;;9.45;;
58470;SDS011;44258;51.288;12.068;2022-08-19T09:54:43;18.10;;;8.38;;
58470;SDS011;44258;51.288;12.068;2022-08-19T09:57:10;18.63;;;9.13;;
58470;SDS011;44258;51.288;12.068;2022-08-19T09:59:36;16.35;;;8.38;;
58470;SDS011;44258;51.288;12.068;2022-08-19T10:02:06;17.98;;;8.32;;
58470;SDS011;44258;51.288;12.068;2022-08-19T10:04:32;17.50;;;8.55;;
58470;SDS011;44258;51.288;12.068;2022-08-19T10:07:13;19.55;;;8.50;;
58470;SDS011;44258;51.288;12.068;2022-08-19T10:09:40;16.40;;;7.78;;
58470;SDS011;44258;51.288;12.068;2022-08-19T10:12:07;18.25;;;8.95;;
58470;SDS011;44258;51.288;12.068;2022-08-19T10:14:34;17.80;;;8.73;;
58470;SDS011;44258;51.288;12.068;2022-08-19T10:17:01;18.50;;;8.90;;
58470;SDS011;44258;51.288;12.068;2022-08-19T10:19:29;18.45;;;9.05;;
58470;SDS011;44258;51.288;12.068;2022-08-19T10:22:02;17.65;;;8.63;;
58470;SDS011;44258;51.288;12.068;2022-08-19T10:24:29;18.27;;;8.55;;
58470;SDS011;44258;51.288;12.068;2022-08-19T10:26:56;18.80;;;8.30;;
58470;SDS011;44258;51.288;12.068;2022-08-19T10:29:23;19.90;;;9.77;;
58470;SDS011;44258;51.288;12.068;2022-08-19T10:31:49;18.42;;;8.93;;
58470;SDS011;44258;51.288;12.068;2022-08-19T10:34:16;20.27;;;9.65;;
58470;SDS011;44258;51.288;12.068;2022-08-19T10:36:44;16.95;;;8.50;;
58470;SDS011;44258;51.288;12.068;2022-08-19T10:39:10;14.85;;;7.47;;
58470;SDS011;44258;51.288;12.068;2022-08-19T10:41:38;14.55;;;7.38;;
58470;SDS011;44258;51.288;12.068;2022-08-19T10:44:09;16.85;;;7.55;;
58470;SDS011;44258;51.288;12.068;2022-08-19T10:46:39;16.25;;;7.45;;
58470;SDS011;44258;51.288;12.068;2022-08-19T10:49:10;15.68;;;8.32;;
58470;SDS011;44258;51.288;12.068;2022-08-19T10:51:37;14.07;;;6.82;;
58470;SDS011;44258;51.288;12.068;2022-08-19T10:54:23;15.52;;;7.70;;
58470;SDS011;44258;51.288;12.068;2022-08-19T10:57:11;17.70;;;8.73;;
58470;SDS011;44258;51.288;12.068;2022-08-19T10:59:36;14.80;;;7.20;;
58470;SDS011;44258;51.288;12.068;2022-08-19T11:02:04;14.95;;;7.53;;
58470;SDS011;44258;51.288;12.068;2022-08-19T11:04:34;17.02;;;7.65;;
58470;SDS011;44258;51.288;12.068;2022-08-19T11:07:01;17.13;;;8.10;;
58470;SDS011;44258;51.288;12.068;2022-08-19T11:09:30;21.30;;;8.45;;
58470;SDS011;44258;51.288;12.068;2022-08-19T11:11:57;17.75;;;8.40;;
58470;SDS011;44258;51.288;12.068;2022-08-19T11:14:23;18.65;;;8.60;;
58470;SDS011;44258;51.288;12.068;2022-08-19T11:16:50;17.98;;;8.80;;
58470;SDS011;44258;51.288;12.068;2022-08-19T11:19:21;19.63;;;9.27;;
58470;SDS011;44258;51.288;12.068;2022-08-19T11:21:49;19.77;;;9.80;;
58470;SDS011;44258;51.288;12.068;2022-08-19T11:24:17;16.88;;;8.48;;
58470;SDS011;44258;51.288;12.068;2022-08-19T11:26:47;20.23;;;9.48;;
58470;SDS011;44258;51.288;12.068;2022-08-19T11:29:16;21.85;;;9.10;;
58470;SDS011;44258;51.288;12.068;2022-08-19T11:31:45;20.63;;;9.32;;
58470;SDS011;44258;51.288;12.068;2022-08-19T11:34:13;16.52;;;8.27;;
58470;SDS011;44258;51.288;12.068;2022-08-19T11:36:42;21.35;;;9.82;;
58470;SDS011;44258;51.288;12.068;2022-08-19T11:39:12;17.20;;;7.82;;
58470;SDS011;44258;51.288;12.068;2022-08-19T11:41:39;18.27;;;9.38;;
58470;SDS011;44258;51.288;12.068;2022-08-19T11:44:08;18.27;;;8.68;;
58470;SDS011;44258;51.288;12.068;2022-08-19T11:46:35;18.35;;;8.02;;
58470;SDS011;44258;51.288;12.068;2022-08-19T11:49:03;18.55;;;8.52;;
58470;SDS011;44258;51.288;12.068;2022-08-19T11:51:34;17.08;;;8.82;;
58470;SDS011;44258;51.288;12.068;2022-08-19T11:54:01;19.88;;;8.27;;
58470;SDS011;44258;51.288;12.068;2022-08-19T11:56:30;19.00;;;8.63;;
58470;SDS011;44258;51.288;12.068;2022-08-19T11:58:57;18.55;;;8.07;;
58470;SDS011;44258;51.288;12.068;2022-08-19T12:01:25;17.50;;;7.60;;
58470;SDS011;44258;51.288;12.068;2022-08-19T12:03:54;18.92;;;7.85;;
58470;SDS011;44258;51.288;12.068;2022-08-19T12:06:22;15.95;;;7.32;;
58470;SDS011;44258;51.288;12.068;2022-08-19T12:08:53;15.80;;;7.63;;
58470;SDS011;44258;51.288;12.068;2022-08-19T12:11:20;16.20;;;7.63;;
58470;SDS011;44258;51.288;12.068;2022-08-19T12:13:47;14.57;;;6.22;;
58470;SDS011;44258;51.288;12.068;2022-08-19T12:16:14;15.02;;;7.97;;
58470;SDS011;44258;51.288;12.068;2022-08-19T12:18:44;15.73;;;6.95;;
58470;SDS011;44258;51.288;12.068;2022-08-19T12:21:12;18.13;;;7.75;;
58470;SDS011;44258;51.288;12.068;2022-08-19T12:23:39;14.30;;;6.53;;
58470;SDS011;44258;51.288;12.068;2022-08-19T12:26:06;12.25;;;6.38;;
58470;SDS011;44258;51.288;12.068;2022-08-19T12:28:34;13.00;;;5.90;;
58470;SDS011;44258;51.288;12.068;2022-08-19T12:31:01;14.05;;;6.55;;
58470;SDS011;44258;51.288;12.068;2022-08-19T12:33:28;15.18;;;5.95;;
58470;SDS011;44258;51.288;12.068;2022-08-19T12:35:59;12.80;;;6.18;;
58470;SDS011;44258;51.288;12.068;2022-08-19T12:38:28;13.48;;;5.95;;
58470;SDS011;44258;51.288;12.068;2022-08-19T12:40:54;13.77;;;6.20;;
58470;SDS011;44258;51.288;12.068;2022-08-19T12:43:21;15.13;;;6.57;;
58470;SDS011;44258;51.288;12.068;2022-08-19T12:45:47;12.40;;;5.93;;
58470;SDS011;44258;51.288;12.068;2022-08-19T12:48:14;14.75;;;6.25;;
58470;SDS011;44258;51.288;12.068;2022-08-19T12:50:41;12.60;;;6.50;;
58470;SDS011;44258;51.288;12.068;2022-08-19T12:53:11;14.15;;;6.68;;
58470;SDS011;44258;51.288;12.068;2022-08-19T12:55:38;13.20;;;6.38;;
58470;SDS011;44258;51.288;12.068;2022-08-19T12:58:04;12.82;;;6.15;;
58470;SDS011;44258;51.288;12.068;2022-08-19T13:00:31;12.15;;;6.15;;
58470;SDS011;44258;51.288;12.068;2022-08-19T13:02:59;12.73;;;6.55;;
58470;SDS011;44258;51.288;12.068;2022-08-19T13:05:26;12.02;;;5.60;;
58470;SDS011;44258;51.288;12.068;2022-08-19T13:07:55;12.20;;;6.28;;
58470;SDS011;44258;51.288;12.068;2022-08-19T13:10:27;14.68;;;6.00;;
58470;SDS011;44258;51.288;12.068;2022-08-19T13:12:56;10.75;;;5.55;;
58470;SDS011;44258;51.288;12.068;2022-08-19T13:15:24;12.18;;;5.43;;
58470;SDS011;44258;51.288;12.068;2022-08-19T13:17:54;12.93;;;5.88;;
58470;SDS011;44258;51.288;12.068;2022-08-19T13:20:21;11.95;;;5.75;;
58470;SDS011;44258;51.288;12.068;2022-08-19T13:22:49;13.30;;;5.55;;
58470;SDS011;44258;51.288;12.068;2022-08-19T13:25:16;12.30;;;5.55;;
58470;SDS011;44258;51.288;12.068;2022-08-19T13:27:46;13.25;;;6.38;;
58470;SDS011;44258;51.288;12.068;2022-08-19T13:30:13;13.20;;;5.78;;
58470;SDS011;44258;51.288;12.068;2022-08-19T13:32:59;13.82;;;6.35;;
58470;SDS011;44258;51.288;12.068;2022-08-19T13:35:39;12.82;;;6.22;;
58470;SDS011;44258;51.288;12.068;2022-08-19T13:38:07;12.93;;;6.28;;
58470;SDS011;44258;51.288;12.068;2022-08-19T13:40:35;12.45;;;6.00;;
58470;SDS011;44258;51.288;12.068;2022-08-19T13:43:03;12.15;;;5.65;;
58470;SDS011;44258;51.288;12.068;2022-08-19T13:45:32;11.60;;;6.13;;
58470;SDS011;44258;51.288;12.068;2022-08-19T13:47:59;14.68;;;6.68;;
58470;SDS011;44258;51.288;12.068;2022-08-19T13:50:29;13.63;;;6.35;;
58470;SDS011;44258;51.288;12.068;2022-08-19T13:52:57;13.45;;;6.32;;
58470;SDS011;44258;51.288;12.068;2022-08-19T13:55:24;14.25;;;6.80;;
58470;SDS011;44258;51.288;12.068;2022-08-19T13:57:52;13.80;;;6.03;;
58470;SDS011;44258;51.288;12.068;2022-08-19T14:00:21;13.55;;;5.97;;
58470;SDS011;44258;51.288;12.068;2022-08-19T14:02:52;12.60;;;6.32;;
58470;SDS011;44258;51.288;12.068;2022-08-19T14:05:21;12.73;;;6.22;;
58470;SDS011;44258;51.288;12.068;2022-08-19T14:07:48;14.75;;;6.28;;
58470;SDS011;44258;51.288;12.068;2022-08-19T14:10:15;12.82;;;6.03;;
58470;SDS011;44258;51.288;12.068;2022-08-19T14:12:43;13.50;;;6.18;;
58470;SDS011;44258;51.288;12.068;2022-08-19T14:15:11;12.98;;;6.00;;
58470;SDS011;44258;51.288;12.068;2022-08-19T14:17:39;12.27;;;5.95;;
58470;SDS011;44258;51.288;12.068;2022-08-19T14:20:08;11.93;;;6.57;;
58470;SDS011;44258;51.288;12.068;2022-08-19T14:22:38;13.15;;;6.38;;